createdAt,value
2018-09-10T00:01:58.441Z,19.29
2018-09-10T00:04:26.024Z,19.39
2018-09-10T00:06:53.608Z,19.30
2018-09-10T00:09:21.137Z,19.17
2018-09-10T00:11:48.708Z,19.15
2018-09-10T00:14:16.440Z,18.93
2018-09-10T00:16:44.014Z,19.10
2018-09-10T00:19:11.531Z,19.18
2018-09-10T00:21:39.081Z,19.20
2018-09-10T00:24:06.845Z,19.21
2018-09-10T00:26:41.115Z,19.24
2018-09-10T00:29:08.685Z,19.08
2018-09-10T00:31:36.267Z,19.03
2018-09-10T00:34:03.858Z,19.18
2018-09-10T00:36:31.377Z,19.21
2018-09-10T00:38:58.918Z,19.21
2018-09-10T00:43:57.212Z,19.25
2018-09-10T00:46:24.801Z,19.23
2018-09-10T00:48:52.353Z,19.30
2018-09-10T00:51:19.929Z,19.25
2018-09-10T00:53:47.527Z,19.26
2018-09-10T00:56:15.286Z,19.22
2018-09-10T00:58:42.866Z,19.25
2018-09-10T01:01:10.401Z,19.27
2018-09-10T01:03:37.955Z,19.21
2018-09-10T01:06:05.707Z,19.24
2018-09-10T01:08:38.105Z,19.26
2018-09-10T01:11:05.858Z,19.22
2018-09-10T01:13:33.461Z,19.14
2018-09-10T01:16:00.985Z,19.12
2018-09-10T01:18:28.572Z,19.00
2018-09-10T01:20:56.349Z,18.93
2018-09-10T01:23:24.103Z,19.04
2018-09-10T01:25:51.648Z,19.00
2018-09-10T01:28:19.207Z,19.03
2018-09-10T01:30:46.805Z,19.08
2018-09-10T01:33:14.571Z,18.93
2018-09-10T01:35:42.123Z,19.07
2018-09-10T01:38:09.696Z,18.98
2018-09-10T01:40:37.236Z,19.03
2018-09-10T01:43:04.819Z,19.01
2018-09-10T01:45:32.390Z,18.88
2018-09-10T01:47:59.956Z,18.93
2018-09-10T01:50:27.479Z,18.77
2018-09-10T01:52:55.049Z,18.89
2018-09-10T01:55:22.586Z,19.04
2018-09-10T01:57:50.136Z,18.87
2018-09-10T02:00:17.694Z,18.85
2018-09-10T02:02:45.237Z,18.85
2018-09-10T02:05:12.827Z,18.83
2018-09-10T02:07:40.393Z,19.04
2018-09-10T02:10:07.915Z,18.87
2018-09-10T02:12:35.476Z,18.94
2018-09-10T02:15:03.000Z,18.83
2018-09-10T02:17:30.555Z,18.56
2018-09-10T02:19:58.101Z,18.55
2018-09-10T02:22:25.683Z,18.35
2018-09-10T02:24:53.294Z,18.41
2018-09-10T02:27:20.895Z,18.67
2018-09-10T02:29:49.588Z,18.60
2018-09-10T02:32:17.112Z,18.64
2018-09-10T02:34:44.696Z,18.79
2018-09-10T02:37:12.224Z,18.74
2018-09-10T02:39:39.818Z,18.67
2018-09-10T02:42:07.330Z,18.54
2018-09-10T02:44:34.912Z,18.72
2018-09-10T02:47:02.422Z,18.73
2018-09-10T02:49:30.269Z,18.58
2018-09-10T02:51:57.827Z,18.73
2018-09-10T02:54:25.327Z,18.79
2018-09-10T02:56:52.904Z,18.73
2018-09-10T02:59:20.488Z,18.75
2018-09-10T03:01:48.152Z,18.75
2018-09-10T03:04:15.720Z,18.73
2018-09-10T03:06:43.285Z,18.91
2018-09-10T03:09:10.798Z,18.89
2018-09-10T03:11:38.355Z,18.84
2018-09-10T03:14:05.903Z,18.88
2018-09-10T03:16:33.478Z,18.88
2018-09-10T03:19:01.077Z,18.70
2018-09-10T03:21:28.765Z,18.53
2018-09-10T03:23:56.465Z,18.70
2018-09-10T03:26:24.136Z,18.70
2018-09-10T03:28:51.651Z,18.55
2018-09-10T03:31:19.250Z,18.77
2018-09-10T03:33:46.786Z,18.67
2018-09-10T03:36:15.181Z,18.73
2018-09-10T03:38:43.871Z,18.63
2018-09-10T03:41:11.446Z,18.68
2018-09-10T03:43:39.013Z,18.76
2018-09-10T03:46:06.547Z,18.71
2018-09-10T03:48:34.127Z,18.67
2018-09-10T03:51:01.688Z,18.72
2018-09-10T03:53:29.267Z,18.64
2018-09-10T03:55:56.815Z,18.76
2018-09-10T03:58:24.384Z,18.99
2018-09-10T04:00:51.950Z,18.90
2018-09-10T04:03:19.519Z,18.77
2018-09-10T04:05:47.027Z,18.73
2018-09-10T04:08:15.213Z,18.67
2018-09-10T04:10:42.961Z,18.71
2018-09-10T04:13:10.484Z,18.84
2018-09-10T04:15:38.072Z,18.67
2018-09-10T04:18:05.615Z,18.88
2018-09-10T04:20:33.211Z,18.92
2018-09-10T04:23:00.928Z,18.94
2018-09-10T04:25:28.525Z,18.83
2018-09-10T04:27:56.084Z,18.68
2018-09-10T04:30:23.672Z,18.68
2018-09-10T04:32:51.257Z,18.45
2018-09-10T04:35:18.783Z,18.54
2018-09-10T04:37:46.350Z,18.38
2018-09-10T04:40:18.303Z,18.31
2018-09-10T04:42:45.873Z,18.38
2018-09-10T04:45:13.398Z,18.34
2018-09-10T04:47:41.015Z,18.25
2018-09-10T04:50:08.533Z,18.13
2018-09-10T04:52:36.071Z,18.15
2018-09-10T04:55:03.650Z,18.12
2018-09-10T04:57:31.206Z,18.18
2018-09-10T04:59:58.799Z,18.09
2018-09-10T05:02:26.356Z,18.15
2018-09-10T05:04:53.924Z,18.09
2018-09-10T05:07:21.448Z,18.14
2018-09-10T05:09:49.147Z,18.05
2018-09-10T05:12:16.553Z,17.98
2018-09-10T05:14:44.140Z,18.00
2018-09-10T05:17:12.627Z,17.90
2018-09-10T05:19:40.217Z,17.98
2018-09-10T05:22:07.786Z,17.96
2018-09-10T05:24:36.597Z,18.07
2018-09-10T05:27:04.147Z,18.04
2018-09-10T05:29:31.725Z,17.96
2018-09-10T05:31:59.272Z,17.90
2018-09-10T05:34:26.864Z,17.86
2018-09-10T05:36:54.515Z,17.97
2018-09-10T05:39:22.045Z,17.93
2018-09-10T05:41:49.868Z,17.95
2018-09-10T05:44:17.330Z,17.96
2018-09-10T05:46:44.915Z,17.92
2018-09-10T05:49:12.494Z,17.79
2018-09-10T05:51:40.193Z,17.85
2018-09-10T05:54:07.717Z,17.74
2018-09-10T05:56:35.285Z,17.87
2018-09-10T05:59:02.841Z,17.62
2018-09-10T06:01:30.433Z,17.60
2018-09-10T06:03:57.978Z,17.63
2018-09-10T06:06:26.745Z,17.60
2018-09-10T06:08:54.329Z,17.69
2018-09-10T06:11:21.860Z,17.71
2018-09-10T06:13:49.394Z,17.62
2018-09-10T06:16:17.006Z,17.55
2018-09-10T06:18:44.706Z,17.67
2018-09-10T06:21:15.826Z,17.67
2018-09-10T06:23:43.355Z,17.49
2018-09-10T06:26:12.974Z,17.52
2018-09-10T06:28:40.509Z,17.53
2018-09-10T06:31:08.061Z,17.51
2018-09-10T06:33:35.660Z,17.51
2018-09-10T06:36:03.178Z,17.53
2018-09-10T06:38:30.767Z,17.54
2018-09-10T06:40:58.322Z,17.60
2018-09-10T06:43:25.901Z,17.70
2018-09-10T06:45:53.463Z,17.59
2018-09-10T06:48:21.049Z,17.52
2018-09-10T06:50:48.614Z,17.46
2018-09-10T06:53:16.191Z,17.49
2018-09-10T06:55:43.949Z,17.59
2018-09-10T06:58:12.600Z,17.66
2018-09-10T07:00:41.401Z,17.79
2018-09-10T07:03:09.073Z,17.90
2018-09-10T07:05:36.868Z,17.70
2018-09-10T07:08:04.582Z,17.94
2018-09-10T07:10:32.168Z,17.93
2018-09-10T07:13:01.704Z,17.78
2018-09-10T07:15:29.758Z,17.95
2018-09-10T07:17:57.354Z,17.88
2018-09-10T07:20:24.989Z,17.94
2018-09-10T07:22:52.708Z,18.13
2018-09-10T07:25:20.303Z,18.26
2018-09-10T07:27:48.001Z,18.00
2018-09-10T07:30:15.634Z,18.31
2018-09-10T07:32:43.182Z,18.23
2018-09-10T07:35:11.001Z,17.77
2018-09-10T07:37:38.742Z,18.17
2018-09-10T07:40:07.424Z,18.07
2018-09-10T07:42:36.124Z,18.09
2018-09-10T07:45:07.222Z,18.33
2018-09-10T07:47:39.980Z,18.32
2018-09-10T07:50:08.584Z,18.27
2018-09-10T07:52:36.099Z,18.38
2018-09-10T07:55:09.107Z,18.28
2018-09-10T07:57:37.763Z,18.16
2018-09-10T08:00:05.571Z,18.43
2018-09-10T08:02:33.268Z,18.28
2018-09-10T08:05:00.844Z,18.08
2018-09-10T08:07:28.396Z,18.31
2018-09-10T08:09:55.941Z,18.43
2018-09-10T08:12:23.530Z,18.31
2018-09-10T08:14:51.073Z,18.66
2018-09-10T08:17:18.609Z,18.39
2018-09-10T08:19:46.193Z,18.45
2018-09-10T08:22:14.812Z,18.58
2018-09-10T08:24:43.501Z,18.60
2018-09-10T08:27:11.022Z,18.83
2018-09-10T08:29:39.663Z,18.79
2018-09-10T08:32:07.425Z,18.88
2018-09-10T08:34:34.951Z,18.87
2018-09-10T08:37:02.493Z,18.73
2018-09-10T08:39:30.103Z,18.99
2018-09-10T08:41:57.699Z,19.12
2018-09-10T08:44:25.269Z,19.11
2018-09-10T08:46:54.005Z,18.85
2018-09-10T08:49:25.782Z,19.14
2018-09-10T08:51:54.473Z,19.09
2018-09-10T08:54:22.333Z,19.20
2018-09-10T08:56:49.814Z,18.89
2018-09-10T08:59:17.457Z,19.09
2018-09-10T09:01:46.161Z,18.94
2018-09-10T09:04:13.744Z,19.03
2018-09-10T09:06:41.307Z,19.09
2018-09-10T09:09:08.922Z,19.18
2018-09-10T09:11:36.587Z,19.31
2018-09-10T09:14:04.396Z,19.37
2018-09-10T09:16:31.943Z,19.48
2018-09-10T09:18:59.596Z,19.41
2018-09-10T09:21:30.693Z,19.56
2018-09-10T09:23:58.299Z,19.50
2018-09-10T09:26:25.922Z,19.44
2018-09-10T09:28:54.583Z,19.58
2018-09-10T09:31:22.151Z,19.63
2018-09-10T09:33:49.866Z,19.62
2018-09-10T09:36:17.453Z,19.72
2018-09-10T09:39:00.065Z,19.85
2018-09-10T09:41:33.011Z,19.71
2018-09-10T09:44:15.454Z,19.86
2018-09-10T09:46:43.031Z,19.82
2018-09-10T09:54:55.560Z,19.85
2018-09-10T09:57:23.275Z,20.03
2018-09-10T09:59:50.863Z,20.08
2018-09-10T10:02:19.434Z,19.93
2018-09-10T10:04:50.930Z,19.79
2018-09-10T10:07:18.461Z,20.11
2018-09-10T10:09:46.156Z,20.15
2018-09-10T10:12:13.813Z,20.00
2018-09-10T10:14:41.359Z,20.05
2018-09-10T10:17:09.139Z,20.03
2018-09-10T10:19:36.681Z,20.02
2018-09-10T10:22:06.199Z,19.98
2018-09-10T10:24:33.981Z,20.16
2018-09-10T10:27:01.602Z,20.12
2018-09-10T10:29:29.155Z,20.26
2018-09-10T10:31:56.734Z,20.30
2018-09-10T10:34:24.399Z,20.10
2018-09-10T10:36:53.074Z,20.32
2018-09-10T10:39:24.033Z,20.36
2018-09-10T10:41:52.649Z,20.27
2018-09-10T10:44:21.287Z,20.36
2018-09-10T10:46:48.869Z,20.38
2018-09-10T10:49:16.490Z,20.49
2018-09-10T10:51:44.345Z,20.43
2018-09-10T10:54:12.296Z,20.51
2018-09-10T10:56:39.856Z,20.73
2018-09-10T10:59:07.555Z,20.67
2018-09-10T11:01:35.149Z,20.61
2018-09-10T11:04:03.750Z,20.39
2018-09-10T11:06:31.510Z,20.33
2018-09-10T11:09:01.164Z,20.40
2018-09-10T11:11:29.076Z,20.50
2018-09-10T11:13:56.646Z,20.69
2018-09-10T11:16:24.461Z,20.71
2018-09-10T11:18:52.249Z,20.58
2018-09-10T11:21:19.849Z,20.59
2018-09-10T11:23:47.399Z,20.64
2018-09-10T11:26:15.279Z,20.58
2018-09-10T11:28:42.834Z,20.51
2018-09-10T11:31:10.363Z,20.73
2018-09-10T11:33:38.061Z,20.56
2018-09-10T11:36:05.646Z,20.80
2018-09-10T11:38:33.408Z,20.80
2018-09-10T11:41:01.013Z,20.90
2018-09-10T11:43:29.542Z,20.94
2018-09-10T11:45:57.281Z,20.87
2018-09-10T11:48:24.872Z,20.98
2018-09-10T11:50:52.408Z,21.13
2018-09-10T11:53:26.409Z,21.20
2018-09-10T11:55:53.921Z,21.34
2018-09-10T11:58:21.839Z,21.13
2018-09-10T12:00:49.536Z,21.15
2018-09-10T12:03:18.159Z,20.99
2018-09-10T12:05:50.164Z,20.96
2018-09-10T12:08:17.806Z,21.08
2018-09-10T12:10:45.347Z,21.11
2018-09-10T12:13:12.910Z,21.10
2018-09-10T12:15:48.035Z,21.11
2018-09-10T12:18:15.561Z,21.16
2018-09-10T12:20:47.864Z,21.06
2018-09-10T12:23:15.446Z,21.13
2018-09-10T12:25:43.951Z,21.15
2018-09-10T12:28:11.522Z,20.93
2018-09-10T12:30:39.066Z,20.94
2018-09-10T12:33:06.667Z,20.69
2018-09-10T12:35:37.549Z,20.74
2018-09-10T12:38:05.078Z,20.87
2018-09-10T12:40:33.718Z,20.74
2018-09-10T12:43:01.253Z,20.97
2018-09-10T12:45:28.809Z,20.98
2018-09-10T12:47:56.423Z,21.05
2018-09-10T12:50:23.974Z,20.85
2018-09-10T12:52:51.569Z,20.88
2018-09-10T12:55:19.090Z,20.76
2018-09-10T12:57:46.671Z,20.98
2018-09-10T13:00:14.219Z,20.89
2018-09-10T13:02:41.772Z,20.92
2018-09-10T13:05:09.314Z,21.05
2018-09-10T13:07:36.911Z,21.13
2018-09-10T13:10:04.423Z,21.31
2018-09-10T13:12:32.008Z,21.23
2018-09-10T13:14:59.537Z,21.34
2018-09-10T13:17:27.050Z,21.19
2018-09-10T13:19:54.629Z,21.23
2018-09-10T13:22:22.175Z,21.24
2018-09-10T13:24:49.746Z,21.43
2018-09-10T13:27:17.264Z,21.48
2018-09-10T13:29:44.914Z,21.38
2018-09-10T13:32:12.429Z,21.57
2018-09-10T13:34:39.986Z,21.49
2018-09-10T13:37:07.572Z,21.38
2018-09-10T13:39:35.157Z,21.41
2018-09-10T13:42:02.670Z,21.39
2018-09-10T13:44:30.286Z,21.50
2018-09-10T13:46:57.850Z,21.53
2018-09-10T13:49:25.632Z,21.66
2018-09-10T13:51:53.174Z,21.63
2018-09-10T13:54:20.712Z,21.34
2018-09-10T13:56:48.278Z,21.36
2018-09-10T13:59:15.830Z,21.21
2018-09-10T14:01:43.500Z,21.27
2018-09-10T14:04:11.025Z,21.33
2018-09-10T14:06:38.616Z,21.26
2018-09-10T14:09:06.130Z,21.33
2018-09-10T14:11:33.701Z,21.23
2018-09-10T14:14:01.272Z,21.33
2018-09-10T14:16:28.849Z,21.33
2018-09-10T14:18:57.612Z,21.57
2018-09-10T14:21:25.206Z,21.29
2018-09-10T14:23:52.793Z,21.42
2018-09-10T14:26:21.511Z,21.33
2018-09-10T14:28:49.377Z,21.62
2018-09-10T14:31:16.998Z,21.49
2018-09-10T14:33:46.639Z,21.25
2018-09-10T14:36:14.381Z,21.46
2018-09-10T14:38:42.129Z,21.28
2018-09-10T14:41:10.742Z,21.36
2018-09-10T14:43:41.409Z,21.27
2018-09-10T14:46:09.153Z,21.31
2018-09-10T14:48:36.695Z,21.39
2018-09-10T14:51:04.295Z,21.35
2018-09-10T14:53:31.878Z,21.52
2018-09-10T14:55:59.448Z,21.33
2018-09-10T14:58:27.097Z,21.24
2018-09-10T15:00:54.799Z,21.08
2018-09-10T15:03:22.360Z,21.11
2018-09-10T15:05:49.966Z,21.24
2018-09-10T15:08:17.452Z,21.34
2018-09-10T15:10:46.200Z,21.26
2018-09-10T15:13:13.801Z,21.34
2018-09-10T15:15:41.367Z,21.44
2018-09-10T15:18:08.952Z,21.34
2018-09-10T15:20:36.659Z,21.45
2018-09-10T15:23:05.783Z,21.33
2018-09-10T15:25:33.346Z,21.03
2018-09-10T15:28:00.926Z,21.21
2018-09-10T15:30:30.449Z,21.19
2018-09-10T15:32:58.012Z,21.19
2018-09-10T15:35:25.628Z,21.14
2018-09-10T15:37:53.215Z,21.05
2018-09-10T15:40:20.947Z,21.14
2018-09-10T15:42:48.478Z,20.90
2018-09-10T15:45:16.078Z,20.86
2018-09-10T15:47:43.611Z,21.02
2018-09-10T15:50:11.184Z,21.13
2018-09-10T15:52:38.744Z,21.25
2018-09-10T15:55:06.318Z,21.25
2018-09-10T15:57:33.996Z,21.28
2018-09-10T16:00:01.578Z,21.37
2018-09-10T16:02:29.143Z,21.43
2018-09-10T16:04:56.711Z,21.43
2018-09-10T16:07:27.559Z,21.24
2018-09-10T16:09:55.139Z,21.35
2018-09-10T16:12:23.610Z,21.36
2018-09-10T16:14:51.606Z,21.31
2018-09-10T16:17:21.412Z,21.25
2018-09-10T16:19:49.027Z,21.31
2018-09-10T16:22:16.686Z,21.30
2018-09-10T16:24:44.299Z,21.37
2018-09-10T16:27:11.869Z,21.36
2018-09-10T16:29:43.294Z,21.41
2018-09-10T16:32:12.945Z,21.35
2018-09-10T16:34:44.181Z,21.41
2018-09-10T16:37:12.776Z,21.47
2018-09-10T16:39:40.327Z,21.48
2018-09-10T16:42:09.841Z,21.34
2018-09-10T16:44:39.415Z,21.28
2018-09-10T16:47:09.042Z,21.39
2018-09-10T16:49:36.615Z,21.34
2018-09-10T16:52:04.204Z,21.55
2018-09-10T16:54:31.879Z,21.67
2018-09-10T16:56:59.468Z,21.75
2018-09-10T16:59:27.068Z,21.72
2018-09-10T17:01:54.750Z,21.66
2018-09-10T17:04:22.306Z,21.70
2018-09-10T17:06:49.892Z,21.74
2018-09-10T17:09:17.505Z,21.73
2018-09-10T17:11:45.065Z,21.74
2018-09-10T17:14:16.086Z,21.83
2018-09-10T17:16:43.613Z,21.86
2018-09-10T17:19:11.174Z,21.82
2018-09-10T17:21:38.776Z,21.62
2018-09-10T17:24:06.350Z,21.38
2018-09-10T17:26:33.946Z,21.55
2018-09-10T17:29:01.481Z,21.60
2018-09-10T17:31:29.010Z,21.55
2018-09-10T17:33:56.588Z,21.39
2018-09-10T17:36:24.169Z,21.46
2018-09-10T17:38:51.831Z,21.43
2018-09-10T17:41:21.411Z,21.42
2018-09-10T17:43:48.979Z,21.41
2018-09-10T17:46:16.510Z,21.34
2018-09-10T17:48:44.137Z,21.47
2018-09-10T17:51:11.687Z,21.48
2018-09-10T17:53:39.280Z,21.37
2018-09-10T17:56:06.810Z,21.38
2018-09-10T17:58:36.414Z,21.43
2018-09-10T18:01:03.968Z,21.32
2018-09-10T18:03:31.555Z,21.34
2018-09-10T18:05:59.150Z,21.15
2018-09-10T18:08:26.677Z,21.13
2018-09-10T18:10:54.270Z,21.01
2018-09-10T18:13:21.890Z,21.05
2018-09-10T18:15:49.511Z,20.94
2018-09-10T18:18:17.096Z,20.80
2018-09-10T18:20:44.678Z,20.92
2018-09-10T18:23:12.232Z,20.86
2018-09-10T18:25:39.764Z,20.87
2018-09-10T18:28:07.327Z,21.02
2018-09-10T18:30:34.843Z,21.00
2018-09-10T18:33:02.421Z,20.93
2018-09-10T18:35:29.964Z,20.74
2018-09-10T18:37:57.538Z,20.71
2018-09-10T18:40:25.089Z,20.66
2018-09-10T18:42:52.709Z,20.48
2018-09-10T18:45:20.278Z,20.65
2018-09-10T18:47:48.047Z,20.71
2018-09-10T18:50:15.603Z,20.59
2018-09-10T18:52:43.114Z,20.13
2018-09-10T18:55:10.700Z,20.16
2018-09-10T18:57:38.212Z,20.09
2018-09-10T19:00:05.768Z,19.86
2018-09-10T19:02:33.355Z,19.95
2018-09-10T19:05:00.958Z,20.15
2018-09-10T19:07:28.526Z,20.25
2018-09-10T19:09:56.207Z,20.17
2018-09-10T19:12:23.717Z,20.07
2018-09-10T19:14:51.257Z,19.78
2018-09-10T19:17:18.859Z,19.83
2018-09-10T19:19:46.460Z,19.98
2018-09-10T19:22:13.992Z,20.00
2018-09-10T19:24:41.568Z,19.93
2018-09-10T19:27:09.109Z,19.94
2018-09-10T19:29:36.649Z,19.86
2018-09-10T19:32:04.202Z,19.67
2018-09-10T19:34:31.715Z,19.78
2018-09-10T19:36:59.273Z,19.87
2018-09-10T19:39:26.838Z,19.82
2018-09-10T19:41:59.209Z,19.74
2018-09-10T19:44:26.771Z,19.58
2018-09-10T19:46:54.319Z,19.80
2018-09-10T19:49:21.904Z,19.75
2018-09-10T19:51:49.429Z,19.59
2018-09-10T19:54:16.996Z,19.62
2018-09-10T19:56:44.574Z,19.67
2018-09-10T19:59:13.330Z,19.75
2018-09-10T20:01:40.872Z,19.52
2018-09-10T20:04:08.465Z,19.57
2018-09-10T20:06:36.015Z,19.72
2018-09-10T20:09:03.745Z,19.50
2018-09-10T20:11:31.288Z,19.47
2018-09-10T20:13:58.974Z,19.71
2018-09-10T20:16:26.487Z,19.61
2018-09-10T20:18:54.187Z,19.62
2018-09-10T20:21:21.764Z,19.49
2018-09-10T20:23:49.289Z,19.51
2018-09-10T20:26:16.876Z,19.45
2018-09-10T20:28:44.433Z,19.60
2018-09-10T20:31:11.979Z,19.39
2018-09-10T20:33:39.558Z,19.31
2018-09-10T20:36:07.062Z,19.31
2018-09-10T20:38:34.614Z,19.15
2018-09-10T20:41:02.131Z,19.22
2018-09-10T20:43:29.702Z,19.20
2018-09-10T20:45:58.359Z,19.13
2018-09-10T20:48:25.951Z,19.08
2018-09-10T20:50:57.854Z,19.07
2018-09-10T20:53:25.449Z,19.04
2018-09-10T20:55:53.025Z,19.08
2018-09-10T20:58:20.544Z,19.02
2018-09-10T21:00:49.259Z,18.91
2018-09-10T21:03:17.042Z,19.11
2018-09-10T21:05:47.875Z,19.03
2018-09-10T21:08:17.536Z,18.86
2018-09-10T21:10:47.118Z,18.89
2018-09-10T21:13:14.632Z,19.06
2018-09-10T21:15:44.183Z,18.79
2018-09-10T21:18:11.752Z,18.88
2018-09-10T21:20:40.299Z,18.89
2018-09-10T21:23:09.953Z,18.92
2018-09-10T21:25:37.900Z,18.58
2018-09-10T21:28:05.984Z,18.67
2018-09-10T21:30:33.623Z,18.79
2018-09-10T21:33:01.305Z,18.92
2018-09-10T21:35:28.965Z,18.85
2018-09-10T21:37:56.623Z,18.83
2018-09-10T21:40:26.174Z,18.84
2018-09-10T21:42:53.874Z,18.89
2018-09-10T21:45:21.430Z,18.77
2018-09-10T21:47:50.078Z,18.82
2018-09-10T21:50:17.601Z,18.83
2018-09-10T21:52:50.211Z,18.64
2018-09-10T21:55:17.751Z,18.68
2018-09-10T21:57:45.308Z,18.71
2018-09-10T22:00:12.907Z,18.58
2018-09-10T22:02:41.600Z,18.64
2018-09-10T22:05:09.126Z,18.71
2018-09-10T22:07:36.698Z,18.78
2018-09-10T22:10:04.275Z,18.84
2018-09-10T22:12:31.815Z,18.45
2018-09-10T22:14:59.405Z,18.58
2018-09-10T22:17:26.955Z,18.62
2018-09-10T22:19:55.643Z,18.44
2018-09-10T22:22:24.498Z,18.29
2018-09-10T22:24:52.089Z,18.65
2018-09-10T22:27:19.858Z,18.49
2018-09-10T22:29:51.351Z,18.39
2018-09-10T22:32:18.873Z,18.58
2018-09-10T22:34:46.404Z,18.59
2018-09-10T22:37:13.969Z,18.49
2018-09-10T22:39:41.516Z,18.63
2018-09-10T22:42:09.081Z,18.49
2018-09-10T22:44:36.626Z,18.38
2018-09-10T22:47:04.190Z,18.68
2018-09-10T22:49:31.873Z,18.65
2018-09-10T22:51:59.431Z,18.62
2018-09-10T22:54:27.024Z,18.36
2018-09-10T22:56:54.551Z,18.37
2018-09-10T22:59:22.156Z,18.50
2018-09-10T23:01:49.757Z,18.44
2018-09-10T23:04:17.302Z,18.11
2018-09-10T23:06:45.258Z,18.44
2018-09-10T23:09:16.602Z,18.37
2018-09-10T23:11:44.483Z,18.17
2018-09-10T23:14:12.469Z,18.17
2018-09-10T23:16:40.518Z,18.35
2018-09-10T23:19:08.191Z,17.97
2018-09-10T23:21:37.999Z,18.22
2018-09-10T23:24:05.553Z,17.85
2018-09-10T23:26:33.120Z,17.77
2018-09-10T23:29:06.303Z,17.82
2018-09-10T23:31:33.971Z,17.90
2018-09-10T23:34:01.568Z,17.93
2018-09-10T23:36:37.604Z,18.07
2018-09-10T23:39:05.119Z,18.05
2018-09-10T23:41:32.696Z,18.14
2018-09-10T23:44:00.211Z,18.34
2018-09-10T23:46:27.799Z,18.20
2018-09-10T23:48:57.306Z,18.02
2018-09-10T23:51:24.910Z,17.94
2018-09-10T23:53:52.516Z,18.01
2018-09-10T23:56:20.090Z,17.84
2018-09-10T23:58:47.660Z,18.07
